Time;durP1;ratioP1;P1;durP2;ratioP2;P2;SDS_P1;SDS_P2;PMS_P1;PMS_P2;Temp;Humidity;BMP_temperature;BMP_pressure;BME280_temperature;BME280_humidity;BME280_pressure;Samples;Min_cycle;Max_cycle;Signal;HPM_P1;HPM_P2
2022/07/23 00:00:24;;;;;;;;;;;;;;;22.03;54.35;101628.41;1045885;28;634;-72
2022/07/23 00:01:15;;;;;;;;;;;;;;;22.04;54.46;101624.66;1041552;28;626;-72
2022/07/23 00:02:06;;;;;;;;;;;;;;;22.07;54.46;101637.94;1040366;28;649;-72
2022/07/23 00:02:56;;;;;;;;;;;;;;;22.05;54.22;101623.66;1043671;28;1956;-71
2022/07/23 00:03:47;;;;;;;;;;;;;;;22.05;54.52;101623.66;1045932;28;697;-71
2022/07/23 00:04:37;;;;;;;;;;;;;;;22.04;54.20;101621.94;1046026;28;720;-71
2022/07/23 00:05:28;;;;;;;;;;;;;;;22.03;54.22;101620.28;1045365;28;669;-71
2022/07/23 00:06:18;;;;;;;;;;;;;;;22.04;54.29;101624.66;1045960;28;657;-71
2022/07/23 00:07:09;;;;;;;;;;;;;;;22.02;54.53;101627.56;1045961;28;689;-71
2022/07/23 00:07:59;;;;;;;;;;;;;;;22.02;54.60;101627.56;1045850;28;634;-71
2022/07/23 00:08:50;;;;;;;;;;;;;;;22.02;54.30;101629.44;1045933;28;614;-71
2022/07/23 00:09:40;;;;;;;;;;;;;;;22.01;54.42;101625.84;1045947;28;625;-71
2022/07/23 00:10:30;;;;;;;;;;;;;;;22.02;54.54;101621.28;1045890;28;685;-71
2022/07/23 00:11:21;;;;;;;;;;;;;;;22.01;54.41;101617.72;1045923;28;1222;-71
2022/07/23 00:12:12;;;;;;;;;;;;;;;22.02;54.36;101619.41;1048077;28;614;-71
2022/07/23 00:13:02;;;;;;;;;;;;;;;22.02;54.29;101622.13;1048972;28;669;-71
2022/07/23 00:13:54;;;;;;;;;;;;;;;22.02;54.48;101621.28;1048157;28;670;-71
2022/07/23 00:14:45;;;;;;;;;;;;;;;22.01;54.51;101619.56;1048243;28;714;-72
2022/07/23 00:15:35;;;;;;;;;;;;;;;22.01;54.62;101620.44;1048443;28;963;-71
2022/07/23 00:16:26;;;;;;;;;;;;;;;22.01;54.51;101625.00;1048897;28;664;-71
2022/07/23 00:17:16;;;;;;;;;;;;;;;22.01;54.63;101616.84;1048253;28;606;-72
2022/07/23 00:18:07;;;;;;;;;;;;;;;22.00;54.35;101617.88;1048924;28;633;-71
2022/07/23 00:18:57;;;;;;;;;;;;;;;22.00;54.25;101621.44;1048858;28;618;-71
2022/07/23 00:19:47;;;;;;;;;;;;;;;22.00;54.28;101610.56;1049006;28;669;-71
2022/07/23 00:20:38;;;;;;;;;;;;;;;22.01;54.29;101616.84;1048783;28;558;-71
2022/07/23 00:21:28;;;;;;;;;;;;;;;22.00;54.30;101623.28;1048758;28;642;-71
2022/07/23 00:22:19;;;;;;;;;;;;;;;22.00;54.48;101615.16;1048894;28;759;-71
2022/07/23 00:23:09;;;;;;;;;;;;;;;22.01;54.37;101625.00;1048852;28;955;-71
2022/07/23 00:23:59;;;;;;;;;;;;;;;22.00;54.57;101615.16;1048863;28;689;-71
2022/07/23 00:24:50;;;;;;;;;;;;;;;22.00;54.25;101615.16;1048634;28;677;-72
2022/07/23 00:25:40;;;;;;;;;;;;;;;22.02;54.37;101616.72;1048850;28;618;-71
2022/07/23 00:26:31;;;;;;;;;;;;;;;22.03;54.82;101613.00;1048889;28;630;-72
2022/07/23 00:27:21;;;;;;;;;;;;;;;22.03;54.78;101617.56;1048221;28;618;-72
2022/07/23 00:28:11;;;;;;;;;;;;;;;22.03;54.41;101610.28;1048897;28;709;-72
2022/07/23 00:29:02;;;;;;;;;;;;;;;22.03;54.32;101610.28;1048663;28;611;-72
2022/07/23 00:29:52;;;;;;;;;;;;;;;22.03;54.47;101614.84;1048983;28;697;-71
2022/07/23 00:30:43;;;;;;;;;;;;;;;22.01;54.38;101603.28;1048709;28;606;-72
2022/07/23 00:31:33;;;;;;;;;;;;;;;22.02;54.41;101610.44;1048212;28;647;-71
2022/07/23 00:32:24;;;;;;;;;;;;;;;22.00;54.18;101607.88;1048424;28;693;-72
2022/07/23 00:33:14;;;;;;;;;;;;;;;22.01;54.23;101608.72;1048775;28;662;-72
2022/07/23 00:34:04;;;;;;;;;;;;;;;21.99;54.51;101608.84;1048913;28;845;-71
2022/07/23 00:34:55;;;;;;;;;;;;;;;22.00;54.22;101612.44;1048048;28;662;-71
2022/07/23 00:35:45;;;;;;;;;;;;;;;21.98;54.44;101603.56;1048288;28;730;-71
2022/07/23 00:36:36;;;;;;;;;;;;;;;21.97;54.54;101612.72;1048935;28;607;-71
2022/07/23 00:37:26;;;;;;;;;;;;;;;21.97;54.27;101601.84;1048742;28;757;-71
2022/07/23 00:38:16;;;;;;;;;;;;;;;21.96;54.41;101601.00;1048833;28;614;-71
2022/07/23 00:39:07;;;;;;;;;;;;;;;21.98;54.36;101600.84;1048701;28;686;-71
2022/07/23 00:39:57;;;;;;;;;;;;;;;21.95;54.46;101604.72;1048282;28;681;-71
2022/07/23 00:40:48;;;;;;;;;;;;;;;21.97;54.32;101601.84;1048373;28;635;-72
2022/07/23 00:41:38;;;;;;;;;;;;;;;21.97;54.32;101604.56;1043780;28;631;-72
2022/07/23 00:42:28;;;;;;;;;;;;;;;21.95;54.44;101599.28;1040842;28;726;-71
2022/07/23 00:43:19;;;;;;;;;;;;;;;21.96;54.04;101611.00;1043599;28;673;-71
2022/07/23 00:44:09;;;;;;;;;;;;;;;21.96;54.44;101601.00;1044950;28;677;-71
2022/07/23 00:45:00;;;;;;;;;;;;;;;21.95;54.19;101601.16;1045024;28;757;-72
2022/07/23 00:45:50;;;;;;;;;;;;;;;21.95;54.35;101604.72;1049285;28;618;-72
2022/07/23 00:46:41;;;;;;;;;;;;;;;21.96;54.50;101600.16;1048501;28;642;-72
2022/07/23 00:47:31;;;;;;;;;;;;;;;21.96;54.32;101601.00;1048706;28;725;-72
2022/07/23 00:48:22;;;;;;;;;;;;;;;21.96;54.18;101600.16;1048927;28;834;-71
2022/07/23 00:49:12;;;;;;;;;;;;;;;21.97;54.23;101607.28;1048790;28;697;-72
2022/07/23 00:50:02;;;;;;;;;;;;;;;21.96;54.40;101600.16;1048926;28;724;-72
2022/07/23 00:50:53;;;;;;;;;;;;;;;21.95;54.21;101595.72;1046439;28;1195;-72
2022/07/23 00:51:43;;;;;;;;;;;;;;;21.94;54.33;101594.00;1043992;28;674;-72
2022/07/23 00:52:34;;;;;;;;;;;;;;;21.94;54.27;101588.59;1044268;28;651;-71
2022/07/23 00:53:24;;;;;;;;;;;;;;;21.94;54.46;101591.31;1043995;28;626;-72
2022/07/23 00:54:14;;;;;;;;;;;;;;;21.93;54.61;101586.88;1044128;28;665;-72
2022/07/23 00:55:05;;;;;;;;;;;;;;;22.00;55.06;101591.56;1044038;28;678;-72
2022/07/23 00:55:55;;;;;;;;;;;;;;;21.97;54.29;101593.72;1040114;28;694;-72
2022/07/23 00:56:46;;;;;;;;;;;;;;;21.95;54.31;101587.59;1041369;28;658;-72
2022/07/23 00:57:36;;;;;;;;;;;;;;;21.95;54.18;101593.00;1045709;28;641;-72
2022/07/23 00:58:27;;;;;;;;;;;;;;;21.95;53.97;101587.59;1044175;28;764;-71
2022/07/23 00:59:17;;;;;;;;;;;;;;;21.93;54.34;101590.44;1043945;28;642;-72
2022/07/23 01:00:08;;;;;;;;;;;;;;;21.93;54.34;101587.72;1044045;28;725;-72
2022/07/23 01:00:58;;;;;;;;;;;;;;;21.94;55.03;101586.72;1044655;28;619;-72
2022/07/23 01:01:49;;;;;;;;;;;;;;;21.95;54.16;101587.59;1044177;28;690;-72
2022/07/23 01:02:39;;;;;;;;;;;;;;;21.94;54.32;101586.72;1044011;28;705;-71
2022/07/23 01:03:30;;;;;;;;;;;;;;;21.94;54.13;101586.72;1044156;28;668;-73
2022/07/23 01:04:20;;;;;;;;;;;;;;;21.94;54.29;101585.88;1044546;28;642;-73
2022/07/23 01:05:11;;;;;;;;;;;;;;;21.93;54.34;101590.44;1040285;28;689;-72
2022/07/23 01:06:01;;;;;;;;;;;;;;;21.95;54.29;101587.59;1037875;28;649;-73
2022/07/23 01:06:52;;;;;;;;;;;;;;;21.94;54.33;101591.31;1040869;28;658;-73
2022/07/23 01:07:42;;;;;;;;;;;;;;;21.93;54.28;101589.59;1045192;28;697;-74
2022/07/23 01:08:32;;;;;;;;;;;;;;;21.93;53.96;101589.59;1044923;28;757;-73
2022/07/23 01:09:23;;;;;;;;;;;;;;;21.92;54.25;101590.59;1044749;28;675;-72
2022/07/23 01:10:32;;;;;;;;;;;;;;;21.92;54.36;101593.31;1045025;28;709;-74
2022/07/23 01:11:22;;;;;;;;;;;;;;;21.94;54.12;101591.31;1047474;28;1221;-74
2022/07/23 01:12:12;;;;;;;;;;;;;;;21.94;54.74;101591.31;1049611;28;618;-73
2022/07/23 01:13:03;;;;;;;;;;;;;;;21.94;54.41;101588.59;1049503;28;712;-74
2022/07/23 01:13:54;;;;;;;;;;;;;;;21.94;54.91;101588.59;1049668;28;705;-74
2022/07/23 01:14:44;;;;;;;;;;;;;;;21.92;54.28;101588.75;1048826;28;816;-73
2022/07/23 01:15:34;;;;;;;;;;;;;;;21.91;54.08;101576.19;1049568;28;661;-73
2022/07/23 01:16:25;;;;;;;;;;;;;;;21.92;54.07;101582.47;1044642;28;631;-73
2022/07/23 01:17:16;;;;;;;;;;;;;;;21.92;54.02;101582.47;1045721;28;634;-73
2022/07/23 01:18:06;;;;;;;;;;;;;;;21.90;54.12;101577.19;1049954;28;634;-73
2022/07/23 01:18:57;;;;;;;;;;;;;;;21.90;54.28;101574.47;1049109;28;768;-73
2022/07/23 01:19:47;;;;;;;;;;;;;;;21.91;54.00;101572.59;1049585;28;643;-73
2022/07/23 01:20:37;;;;;;;;;;;;;;;21.92;54.21;101566.19;1049588;28;721;-73
2022/07/23 01:21:29;;;;;;;;;;;;;;;21.92;54.23;101566.19;1048863;28;737;-74
2022/07/23 01:22:19;;;;;;;;;;;;;;;21.94;54.73;101567.72;1048939;28;615;-73
2022/07/23 01:23:10;;;;;;;;;;;;;;;21.94;53.77;101572.31;1049558;28;1894;-73
2022/07/23 01:24:00;;;;;;;;;;;;;;;21.94;54.06;101575.00;1048897;28;678;-74
2022/07/23 01:24:50;;;;;;;;;;;;;;;21.94;54.09;101584.00;1049514;28;768;-74
2022/07/23 01:25:41;;;;;;;;;;;;;;;21.93;53.69;101567.88;1049459;28;630;-74
2022/07/23 01:26:31;;;;;;;;;;;;;;;21.90;54.11;101571.75;1049458;28;702;-72
2022/07/23 01:27:22;;;;;;;;;;;;;;;21.89;54.25;101580.91;1049583;28;705;-74
2022/07/23 01:28:12;;;;;;;;;;;;;;;21.89;54.28;101572.75;1048893;28;693;-74
2022/07/23 01:29:03;;;;;;;;;;;;;;;21.88;53.81;101570.19;1049469;28;717;-74
2022/07/23 01:29:53;;;;;;;;;;;;;;;21.87;54.17;101566.63;1049470;28;650;-74
2022/07/23 01:30:43;;;;;;;;;;;;;;;21.89;53.83;101571.91;1049427;28;1177;-72
2022/07/23 01:31:34;;;;;;;;;;;;;;;21.88;53.90;101567.47;1049442;28;685;-74
2022/07/23 01:32:24;;;;;;;;;;;;;;;21.86;53.98;101569.50;1049514;28;618;-74
2022/07/23 01:33:15;;;;;;;;;;;;;;;21.87;54.05;101568.50;1048997;28;721;-74
2022/07/23 01:34:06;;;;;;;;;;;;;;;21.85;54.25;101557.81;1049438;28;697;-74
2022/07/23 01:34:57;;;;;;;;;;;;;;;21.86;53.91;101564.06;1048882;28;615;-72
2022/07/23 01:35:47;;;;;;;;;;;;;;;21.87;53.89;101571.22;1049470;28;662;-74
2022/07/23 01:36:38;;;;;;;;;;;;;;;21.86;54.07;101574.94;1049563;28;658;-74
2022/07/23 01:37:28;;;;;;;;;;;;;;;21.86;53.82;101569.50;1048774;28;722;-74
2022/07/23 01:38:19;;;;;;;;;;;;;;;21.86;53.85;101572.22;1049010;28;935;-74
2022/07/23 01:39:09;;;;;;;;;;;;;;;21.85;53.89;101565.09;1049471;28;681;-74
2022/07/23 01:39:59;;;;;;;;;;;;;;;21.85;53.95;101571.38;1049622;28;702;-74
2022/07/23 01:40:50;;;;;;;;;;;;;;;21.84;53.83;101564.25;1049496;28;694;-74
2022/07/23 01:41:40;;;;;;;;;;;;;;;21.85;53.84;101563.25;1049437;28;654;-74
2022/07/23 01:42:31;;;;;;;;;;;;;;;21.85;53.90;101562.41;1048768;28;697;-74
2022/07/23 01:43:21;;;;;;;;;;;;;;;21.85;53.82;101565.09;1049436;28;660;-74
2022/07/23 01:44:12;;;;;;;;;;;;;;;21.82;53.74;101553.56;1049493;28;654;-73
2022/07/23 01:45:02;;;;;;;;;;;;;;;21.83;53.92;101557.97;1048998;28;696;-73
2022/07/23 01:45:52;;;;;;;;;;;;;;;21.83;53.74;101563.41;1049447;28;603;-74
2022/07/23 01:46:43;;;;;;;;;;;;;;;21.82;53.85;101561.69;1049332;28;611;-74
2022/07/23 01:47:33;;;;;;;;;;;;;;;21.82;53.87;101561.69;1049469;28;779;-74
2022/07/23 01:48:24;;;;;;;;;;;;;;;21.82;53.70;101558.13;1049513;28;682;-74
2022/07/23 01:49:14;;;;;;;;;;;;;;;21.82;53.88;101563.56;1049481;28;602;-73
2022/07/23 01:50:05;;;;;;;;;;;;;;;21.81;53.73;101560.00;1049524;28;633;-73
2022/07/23 01:50:55;;;;;;;;;;;;;;;21.81;53.60;101565.41;1046893;28;1188;-73
2022/07/23 01:52:01;;;;;;;;;;;;;;;21.82;53.60;101563.56;1044762;28;622;-74
2022/07/23 01:52:51;;;;;;;;;;;;;;;21.81;53.65;101570.84;1044748;28;673;-73
2022/07/23 01:53:42;;;;;;;;;;;;;;;21.83;53.63;101574.25;1044848;28;698;-73
2022/07/23 01:54:32;;;;;;;;;;;;;;;21.83;53.77;101567.97;1044674;28;724;-73
2022/07/23 01:55:22;;;;;;;;;;;;;;;21.83;53.83;101573.41;1044984;28;619;-73
2022/07/23 01:56:14;;;;;;;;;;;;;;;21.83;54.09;101574.25;1044535;28;635;-73
2022/07/23 01:57:05;;;;;;;;;;;;;;;21.81;53.76;101562.69;1045266;28;665;-73
2022/07/23 01:57:55;;;;;;;;;;;;;;;21.81;53.72;101570.00;1044670;28;630;-73
2022/07/23 01:58:46;;;;;;;;;;;;;;;21.82;54.21;101572.56;1044756;28;929;-73
2022/07/23 01:59:37;;;;;;;;;;;;;;;21.82;53.63;101561.69;1044598;28;655;-73
2022/07/23 02:00:27;;;;;;;;;;;;;;;21.81;53.58;101567.28;1045166;28;672;-73
2022/07/23 02:01:18;;;;;;;;;;;;;;;21.80;53.79;101566.41;1044834;28;740;-73
2022/07/23 02:02:08;;;;;;;;;;;;;;;21.80;53.52;101569.13;1044694;28;643;-73
2022/07/23 02:02:59;;;;;;;;;;;;;;;21.80;53.65;101562.84;1044717;28;1985;-73
2022/07/23 02:03:49;;;;;;;;;;;;;;;21.79;53.21;101556.56;1044580;28;635;-73
2022/07/23 02:04:40;;;;;;;;;;;;;;;21.80;53.63;101561.00;1044676;28;827;-73
2022/07/23 02:05:31;;;;;;;;;;;;;;;21.81;53.51;101557.28;1044564;28;623;-73
2022/07/23 02:06:21;;;;;;;;;;;;;;;21.81;53.88;101560.00;1045272;28;791;-73
2022/07/23 02:07:12;;;;;;;;;;;;;;;21.79;53.58;101556.56;1044835;28;654;-73
2022/07/23 02:08:03;;;;;;;;;;;;;;;21.79;53.34;101553.84;1045326;28;708;-73
2022/07/23 02:08:53;;;;;;;;;;;;;;;21.78;53.65;101557.59;1044480;28;708;-72
2022/07/23 02:09:44;;;;;;;;;;;;;;;21.81;53.95;101560.00;1040892;28;686;-73
2022/07/23 02:10:34;;;;;;;;;;;;;;;21.82;53.52;101560.84;1042635;28;625;-73
2022/07/23 02:11:24;;;;;;;;;;;;;;;21.84;53.42;101564.25;1046892;28;1183;-73
2022/07/23 02:12:15;;;;;;;;;;;;;;;21.81;53.43;101560.00;1048976;28;689;-73
2022/07/23 02:13:05;;;;;;;;;;;;;;;21.82;53.71;101567.13;1049340;28;646;-74
2022/07/23 02:13:56;;;;;;;;;;;;;;;21.81;53.33;101570.00;1048993;28;701;-73
2022/07/23 02:14:46;;;;;;;;;;;;;;;21.80;53.54;101565.56;1049345;28;636;-73
2022/07/23 02:15:37;;;;;;;;;;;;;;;21.80;53.47;101568.28;1049343;28;712;-73
2022/07/23 02:16:27;;;;;;;;;;;;;;;21.79;53.65;101555.72;1049245;28;583;-73
2022/07/23 02:17:17;;;;;;;;;;;;;;;21.79;53.66;101563.84;1048760;28;654;-73
2022/07/23 02:18:08;;;;;;;;;;;;;;;21.79;53.46;101562.00;1049384;28;638;-73
2022/07/23 02:18:58;;;;;;;;;;;;;;;21.79;53.59;101566.56;1049330;28;717;-72
2022/07/23 02:19:49;;;;;;;;;;;;;;;21.78;53.64;101560.28;1049421;28;748;-73
2022/07/23 02:20:39;;;;;;;;;;;;;;;21.79;53.61;101559.28;1049228;28;615;-73
2022/07/23 02:21:30;;;;;;;;;;;;;;;21.79;53.39;101561.16;1048755;28;662;-73
2022/07/23 02:22:20;;;;;;;;;;;;;;;21.79;53.34;101558.44;1049253;28;634;-73
2022/07/23 02:23:11;;;;;;;;;;;;;;;21.77;53.42;101564.00;1049220;28;1941;-73
2022/07/23 02:24:01;;;;;;;;;;;;;;;21.77;53.32;101555.00;1049213;28;947;-73
2022/07/23 02:24:51;;;;;;;;;;;;;;;21.79;53.88;101561.16;1048691;28;715;-73
2022/07/23 02:25:42;;;;;;;;;;;;;;;21.78;53.51;101554.88;1049277;28;642;-73
2022/07/23 02:26:34;;;;;;;;;;;;;;;21.78;53.39;101557.59;1048684;28;634;-73
2022/07/23 02:27:24;;;;;;;;;;;;;;;21.78;53.40;101559.44;1048713;28;638;-73
2022/07/23 02:28:15;;;;;;;;;;;;;;;21.79;53.28;101556.56;1048919;28;712;-73
2022/07/23 02:29:05;;;;;;;;;;;;;;;21.80;53.46;101558.28;1048682;28;709;-73
2022/07/23 02:29:57;;;;;;;;;;;;;;;21.77;53.33;101560.44;1048766;28;653;-73
2022/07/23 02:30:47;;;;;;;;;;;;;;;21.77;53.68;101561.28;1048654;28;627;-72
2022/07/23 02:31:38;;;;;;;;;;;;;;;21.78;53.27;101556.72;1049249;28;893;-73
2022/07/23 02:32:28;;;;;;;;;;;;;;;21.78;53.49;101559.44;1049261;28;705;-73
2022/07/23 02:33:19;;;;;;;;;;;;;;;21.78;53.62;101559.44;1049320;28;744;-73
2022/07/23 02:34:11;;;;;;;;;;;;;;;21.77;53.68;101553.16;1049338;28;661;-73
2022/07/23 02:35:01;;;;;;;;;;;;;;;21.76;53.39;101556.88;1048723;28;670;-73
2022/07/23 02:35:52;;;;;;;;;;;;;;;21.76;53.20;101564.16;1048712;28;714;-73
2022/07/23 02:36:42;;;;;;;;;;;;;;;21.76;53.53;101556.88;1044210;28;685;-74
2022/07/23 02:37:33;;;;;;;;;;;;;;;21.75;53.50;101549.75;1045452;28;646;-73
2022/07/23 02:38:23;;;;;;;;;;;;;;;21.75;53.35;101565.16;1049668;28;724;-74
2022/07/23 02:39:14;;;;;;;;;;;;;;;21.76;54.07;101562.31;1044276;28;634;-73
2022/07/23 02:40:04;;;;;;;;;;;;;;;21.75;53.24;101559.75;1045325;28;717;-73
2022/07/23 02:40:55;;;;;;;;;;;;;;;21.73;53.30;101568.03;1049771;28;952;-73
2022/07/23 02:41:45;;;;;;;;;;;;;;;21.72;53.51;101571.75;1048573;28;686;-73
2022/07/23 02:42:35;;;;;;;;;;;;;;;21.71;53.47;101564.63;1048778;28;710;-73
2022/07/23 02:43:26;;;;;;;;;;;;;;;21.73;53.49;101573.47;1049438;28;708;-73
2022/07/23 02:44:16;;;;;;;;;;;;;;;21.72;53.48;101579.88;1049149;28;697;-73
2022/07/23 02:45:07;;;;;;;;;;;;;;;21.72;53.26;101582.59;1048742;28;710;-73
2022/07/23 02:45:57;;;;;;;;;;;;;;;21.71;53.38;101580.91;1049115;28;713;-74
2022/07/23 02:46:48;;;;;;;;;;;;;;;21.70;53.47;101573.75;1049341;28;757;-73
2022/07/23 02:47:38;;;;;;;;;;;;;;;21.71;53.65;101580.03;1049747;28;680;-73
2022/07/23 02:48:28;;;;;;;;;;;;;;;21.70;53.32;101579.19;1049152;28;650;-73
2022/07/23 02:49:19;;;;;;;;;;;;;;;21.70;53.44;101581.91;1049342;28;649;-73
2022/07/23 02:50:09;;;;;;;;;;;;;;;21.69;53.46;101580.19;1049191;28;859;-73
2022/07/23 02:51:00;;;;;;;;;;;;;;;21.69;53.61;101579.34;1046061;28;1196;-73
2022/07/23 02:51:50;;;;;;;;;;;;;;;21.73;54.20;101578.88;1044450;28;623;-73
2022/07/23 02:52:41;;;;;;;;;;;;;;;21.76;54.05;101584.00;1044427;28;697;-73
2022/07/23 02:53:31;;;;;;;;;;;;;;;21.75;53.27;101587.72;1044393;28;634;-73
2022/07/23 02:54:21;;;;;;;;;;;;;;;21.77;54.18;101588.44;1044499;28;611;-73
2022/07/23 02:55:12;;;;;;;;;;;;;;;21.74;53.47;101588.72;1044589;28;650;-73
2022/07/23 02:56:02;;;;;;;;;;;;;;;21.75;54.37;101587.72;1044415;28;690;-72
2022/07/23 02:56:53;;;;;;;;;;;;;;;21.73;53.13;101586.16;1044516;28;681;-73
2022/07/23 02:57:43;;;;;;;;;;;;;;;21.73;53.75;101588.88;1044347;28;627;-72
2022/07/23 02:58:34;;;;;;;;;;;;;;;21.74;53.94;101585.16;1044474;28;706;-72
2022/07/23 02:59:24;;;;;;;;;;;;;;;21.72;53.79;101592.59;1044388;28;771;-72
2022/07/23 03:00:14;;;;;;;;;;;;;;;21.73;54.13;101592.44;1044415;28;686;-72
2022/07/23 03:01:05;;;;;;;;;;;;;;;21.74;53.81;101594.16;1044462;28;718;-73
2022/07/23 03:01:55;;;;;;;;;;;;;;;21.75;53.10;101586.88;1044301;28;718;-73
2022/07/23 03:02:46;;;;;;;;;;;;;;;21.71;53.27;101591.75;1040483;28;1973;-73
2022/07/23 03:03:36;;;;;;;;;;;;;;;21.68;53.18;101589.34;1041837;28;678;-72
2022/07/23 03:04:26;;;;;;;;;;;;;;;21.67;53.34;101586.81;1042364;28;632;-72
2022/07/23 03:05:17;;;;;;;;;;;;;;;21.66;53.32;101588.66;1041171;28;698;-72
2022/07/23 03:06:07;;;;;;;;;;;;;;;21.66;53.47;101594.09;1044968;28;662;-72
2022/07/23 03:06:58;;;;;;;;;;;;;;;21.65;53.59;101592.38;1044346;28;646;-72
2022/07/23 03:07:48;;;;;;;;;;;;;;;21.64;53.20;101585.25;1044248;28;619;-73
2022/07/23 03:08:39;;;;;;;;;;;;;;;21.63;53.50;101594.38;1044416;28;647;-72
2022/07/23 03:09:29;;;;;;;;;;;;;;;21.63;53.26;101593.53;1044330;28;662;-73
2022/07/23 03:10:19;;;;;;;;;;;;;;;21.64;52.92;101589.81;1044397;28;607;-73
2022/07/23 03:11:13;;;;;;;;;;;;;;;21.67;53.23;101592.22;1044448;28;655;-72
2022/07/23 03:12:03;;;;;;;;;;;;;;;21.67;53.15;101584.94;1043707;28;646;-72
2022/07/23 03:12:54;;;;;;;;;;;;;;;21.69;53.06;101588.34;1044742;28;701;-72
2022/07/23 03:13:44;;;;;;;;;;;;;;;21.68;53.68;101594.75;1043267;28;748;-72
2022/07/23 03:14:35;;;;;;;;;;;;;;;21.69;53.27;101595.63;1045522;28;681;-72
2022/07/23 03:15:25;;;;;;;;;;;;;;;21.69;53.21;101598.34;1042091;28;701;-72
2022/07/23 03:16:15;;;;;;;;;;;;;;;21.69;53.06;101596.47;1041141;28;741;-72
2022/07/23 03:17:06;;;;;;;;;;;;;;;21.68;52.90;101596.63;1045962;28;636;-72
2022/07/23 03:17:56;;;;;;;;;;;;;;;21.65;53.33;101595.09;1045462;28;618;-72
2022/07/23 03:18:47;;;;;;;;;;;;;;;21.67;53.52;101594.94;1045561;28;640;-72
2022/07/23 03:19:38;;;;;;;;;;;;;;;21.65;53.27;101599.66;1046160;28;673;-72
2022/07/23 03:20:28;;;;;;;;;;;;;;;21.64;53.18;101598.81;1044387;28;674;-72
2022/07/23 03:21:19;;;;;;;;;;;;;;;21.64;53.16;101601.53;1045620;28;673;-72
2022/07/23 03:22:09;;;;;;;;;;;;;;;21.66;53.46;101599.53;1042308;28;693;-72
2022/07/23 03:23:00;;;;;;;;;;;;;;;21.66;53.45;101604.94;1041017;28;1953;-72
2022/07/23 03:23:50;;;;;;;;;;;;;;;21.64;53.22;101604.25;1045272;28;650;-72
2022/07/23 03:24:56;;;;;;;;;;;;;;;21.66;53.68;101602.22;1045350;28;1285;-72
2022/07/23 03:25:48;;;;;;;;;;;;;;;21.64;53.43;101598.81;1046019;28;740;-72
2022/07/23 03:26:39;;;;;;;;;;;;;;;21.64;52.99;101590.69;1044267;28;709;-71
2022/07/23 03:27:30;;;;;;;;;;;;;;;21.64;54.04;101587.97;1044418;28;682;-71
2022/07/23 03:28:20;;;;;;;;;;;;;;;21.64;53.20;101593.38;1046082;28;657;-71
2022/07/23 03:29:10;;;;;;;;;;;;;;;21.61;52.94;101590.97;1046059;28;646;-71
2022/07/23 03:30:01;;;;;;;;;;;;;;;21.61;53.42;101590.97;1045211;28;686;-72
2022/07/23 03:30:51;;;;;;;;;;;;;;;21.64;53.99;101585.25;1046078;28;669;-72
2022/07/23 03:31:42;;;;;;;;;;;;;;;21.65;53.24;101596.97;1045553;28;721;-72
2022/07/23 03:32:32;;;;;;;;;;;;;;;21.63;53.62;101594.38;1046149;28;807;-72
2022/07/23 03:33:23;;;;;;;;;;;;;;;21.63;53.13;101597.09;1045526;28;673;-72
2022/07/23 03:34:13;;;;;;;;;;;;;;;21.63;53.22;101591.69;1045955;28;645;-72
2022/07/23 03:35:03;;;;;;;;;;;;;;;21.63;53.94;101598.97;1046009;28;671;-72
2022/07/23 03:35:54;;;;;;;;;;;;;;;21.64;53.41;101604.25;1045477;28;740;-72
2022/07/23 03:36:44;;;;;;;;;;;;;;;21.63;52.93;101590.81;1046126;28;717;-72
2022/07/23 03:37:35;;;;;;;;;;;;;;;21.61;54.00;101585.56;1045564;28;730;-72
2022/07/23 03:38:25;;;;;;;;;;;;;;;21.62;53.44;101592.69;1046042;28;629;-71
2022/07/23 03:39:15;;;;;;;;;;;;;;;21.61;53.18;101598.25;1046046;28;649;-72
2022/07/23 03:40:06;;;;;;;;;;;;;;;21.62;53.11;101589.13;1046028;28;689;-72
2022/07/23 03:40:56;;;;;;;;;;;;;;;21.61;53.87;101590.13;1045654;28;645;-71
2022/07/23 03:41:47;;;;;;;;;;;;;;;21.61;53.41;101590.13;1045456;28;685;-71
2022/07/23 03:42:39;;;;;;;;;;;;;;;21.61;53.57;101595.56;1042234;28;700;-71
2022/07/23 03:43:29;;;;;;;;;;;;;;;21.61;53.17;101587.41;1041618;28;658;-73
2022/07/23 03:44:20;;;;;;;;;;;;;;;21.63;53.52;101588.13;1045537;28;700;-73
2022/07/23 03:45:10;;;;;;;;;;;;;;;21.65;53.62;101589.66;1045413;28;713;-71
2022/07/23 03:46:01;;;;;;;;;;;;;;;21.61;53.84;101585.56;1045440;28;712;-72
2022/07/23 03:46:51;;;;;;;;;;;;;;;21.62;53.35;101591.84;1045264;28;709;-72
2022/07/23 03:47:43;;;;;;;;;;;;;;;21.61;53.13;101585.56;1045971;28;657;-73
2022/07/23 03:48:33;;;;;;;;;;;;;;;21.61;53.71;101584.69;1041583;28;740;-72
2022/07/23 03:49:23;;;;;;;;;;;;;;;21.61;53.13;101592.84;1041632;28;662;-72
2022/07/23 03:50:14;;;;;;;;;;;;;;;21.60;53.50;101589.28;1045039;28;638;-72
2022/07/23 03:51:04;;;;;;;;;;;;;;;21.60;53.24;101585.69;1039851;28;1249;-72
2022/07/23 03:51:55;;;;;;;;;;;;;;;21.59;53.31;101581.28;1041534;28;621;-72
2022/07/23 03:52:45;;;;;;;;;;;;;;;21.58;53.03;101579.56;1044660;28;701;-72
2022/07/23 03:53:36;;;;;;;;;;;;;;;21.57;53.48;101578.72;1043699;28;674;-73
2022/07/23 03:54:26;;;;;;;;;;;;;;;21.56;53.86;101577.00;1043965;28;646;-72
2022/07/23 03:55:16;;;;;;;;;;;;;;;21.56;53.42;101577.00;1043635;28;638;-72
2022/07/23 03:56:07;;;;;;;;;;;;;;;21.57;53.15;101573.28;1044339;28;671;-72
2022/07/23 03:56:57;;;;;;;;;;;;;;;21.59;53.37;101576.72;1044032;28;665;-72
2022/07/23 03:57:48;;;;;;;;;;;;;;;21.57;53.71;101572.44;1043731;28;658;-72
2022/07/23 03:58:38;;;;;;;;;;;;;;;21.59;53.79;101573.13;1045389;28;701;-72
2022/07/23 03:59:29;;;;;;;;;;;;;;;21.60;53.63;101570.28;1043592;28;611;-72
2022/07/23 04:00:19;;;;;;;;;;;;;;;21.59;54.10;101568.56;1040403;28;651;-72
2022/07/23 04:01:09;;;;;;;;;;;;;;;21.60;53.78;101569.44;1041510;28;701;-73
2022/07/23 04:02:00;;;;;;;;;;;;;;;21.59;53.01;101571.28;1045353;28;629;-72
2022/07/23 04:02:50;;;;;;;;;;;;;;;21.57;53.34;101565.16;1043882;28;1882;-72
2022/07/23 04:03:41;;;;;;;;;;;;;;;21.59;53.80;101565.84;1044255;28;666;-72
2022/07/23 04:04:31;;;;;;;;;;;;;;;21.61;53.40;101561.13;1044365;28;698;-72
2022/07/23 04:05:21;;;;;;;;;;;;;;;21.61;53.41;101560.28;1044103;28;659;-72
2022/07/23 04:06:12;;;;;;;;;;;;;;;21.61;53.32;101568.41;1040381;28;685;-72
2022/07/23 04:07:02;;;;;;;;;;;;;;;21.58;53.47;101563.28;1041613;28;598;-72
2022/07/23 04:07:53;;;;;;;;;;;;;;;21.57;53.66;101567.88;1045177;28;547;-72
2022/07/23 04:08:43;;;;;;;;;;;;;;;21.58;54.21;101568.72;1043886;28;646;-71
2022/07/23 04:09:33;;;;;;;;;;;;;;;21.57;53.17;101573.28;1044077;28;642;-72
2022/07/23 04:10:24;;;;;;;;;;;;;;;21.58;54.11;101568.72;1044284;28;776;-72
2022/07/23 04:11:14;;;;;;;;;;;;;;;21.56;53.32;101568.88;1045296;28;719;-72
2022/07/23 04:12:05;;;;;;;;;;;;;;;21.57;53.45;101572.44;1044263;28;642;-72
2022/07/23 04:12:55;;;;;;;;;;;;;;;21.57;53.51;101570.59;1045922;28;730;-72
2022/07/23 04:13:46;;;;;;;;;;;;;;;21.56;53.43;101576.16;1045835;28;650;-72
2022/07/23 04:14:36;;;;;;;;;;;;;;;21.55;53.47;101579.88;1044081;28;606;-72
2022/07/23 04:15:27;;;;;;;;;;;;;;;21.56;54.22;101581.56;1040852;28;694;-72
2022/07/23 04:16:17;;;;;;;;;;;;;;;21.54;53.42;101576.31;1040929;28;661;-72
2022/07/23 04:17:07;;;;;;;;;;;;;;;21.52;53.50;101581.03;1045200;28;634;-72
2022/07/23 04:17:58;;;;;;;;;;;;;;;21.53;53.69;101585.44;1045787;28;673;-72
2022/07/23 04:18:48;;;;;;;;;;;;;;;21.54;53.57;101576.31;1045973;28;665;-73
2022/07/23 04:19:43;;;;;;;;;;;;;;;21.53;53.38;101576.47;1046003;28;619;-73
2022/07/23 04:20:33;;;;;;;;;;;;;;;21.51;53.26;101584.75;1045921;28;665;-72
2022/07/23 04:21:24;;;;;;;;;;;;;;;21.52;53.47;101580.16;1045833;28;665;-72
2022/07/23 04:22:14;;;;;;;;;;;;;;;21.51;53.30;101581.19;1044048;28;626;-72
2022/07/23 04:23:05;;;;;;;;;;;;;;;21.50;53.17;101577.59;1045808;28;1886;-72
2022/07/23 04:23:55;;;;;;;;;;;;;;;21.49;53.52;101586.78;1045352;28;646;-72
2022/07/23 04:24:46;;;;;;;;;;;;;;;21.49;53.25;101581.34;1044291;28;670;-72
2022/07/23 04:25:36;;;;;;;;;;;;;;;21.50;53.47;101587.63;1046022;28;646;-72
2022/07/23 04:26:27;;;;;;;;;;;;;;;21.49;53.32;101578.66;1045690;28;605;-72